Westfield, Indiana
Current Conditions -  °F | °C
As of 11:55 AM on Friday 24 Oct 2014 (Local Time) from KTYQ Reporting Station
Overcast Overcast  
Wind Chill: 55°   Ceiling: 1900
Heat Index: 55°   Visibility: 10mi
Dew Point: 46°   Wind: 5mph
Humidity: 73%   Direction: 230°SW
Pressure: 30.11"   Gusts: NA
Location:  40.04°N, 86.13°W
Report Text: KTYQ 241555Z AUTO 23004KT 10SM OVC019 13/08 A3011 RMK AO2 T01280080
Loading
Personal Weather Stations






























Interactive Weather Map New forecast layout! Learn more

10-Day Weather Forecast

Advertisements
Track Severe Weather on mobile